Terminal Aerodrome Forecast
Issued by NWS Tulsa, OK

Home | Current Version | Previous Version | Text Only | Print | Product List | Glossary On
Versions: 1 2 3 4 5 6 7 8 9 10 11 12
000
FTUS44 KTSA 272320
TAFFSM
TAF
KFSM 272320Z 2800/2824 19009KT P6SM SCT045
      TEMPO 2802/2806 VRB30G50KT 1SM +TSRA BKN015CB
     FM280600 VRB04KT P6SM BKN050
     FM281000 30006KT 4SM BR OVC012
     FM281500 32010KT P6SM BKN030
     FM281800 33010KT P6SM BKN050=

USA.gov is the U.S. government's official web portal to all federal, state and local government web resources and services.